Time;durP1;ratioP1;P1;durP2;ratioP2;P2;SDS_P1;SDS_P2;PMS_P1;PMS_P2;Temp;Humidity;BMP_temperature;BMP_pressure;BME280_temperature;BME280_humidity;BME280_pressure;Samples;Min_cycle;Max_cycle;Signal;HPM_P1;HPM_P2
2021/04/23 00:01:15;;;;;;;7.28;3.08;;;4.10;99.90;;;;;;5032058;28;20028;-45
2021/04/23 00:03:51;;;;;;;6.75;2.90;;;4.00;99.90;;;;;;5014600;28;20018;-43
2021/04/23 00:06:21;;;;;;;7.90;3.58;;;3.90;99.90;;;;;;5030813;28;20079;-43
2021/04/23 00:08:59;;;;;;;4.95;2.25;;;3.90;99.90;;;;;;5032182;28;20029;-43
2021/04/23 00:11:51;;;;;;;9.05;3.08;;;3.90;99.90;;;;;;5031968;28;20373;-43
2021/04/23 00:14:22;;;;;;;11.00;3.15;;;3.90;99.90;;;;;;5023030;28;20034;-44
2021/04/23 00:16:48;;;;;;;6.57;3.00;;;3.80;99.90;;;;;;5012523;28;20022;-43
2021/04/23 00:19:18;;;;;;;11.07;3.55;;;3.80;99.90;;;;;;5014792;28;20018;-45
2021/04/23 00:21:44;;;;;;;9.27;3.22;;;3.80;99.90;;;;;;5015951;28;20065;-43
2021/04/23 00:24:11;;;;;;;11.18;3.35;;;3.80;99.90;;;;;;5015880;28;20046;-43
2021/04/23 00:26:38;;;;;;;8.75;3.67;;;3.80;99.90;;;;;;5015756;28;20386;-43
2021/04/23 00:29:04;;;;;;;13.50;3.97;;;3.80;99.90;;;;;;5015915;28;20105;-43
2021/04/23 00:31:30;;;;;;;7.28;3.40;;;3.70;99.90;;;;;;5015810;28;20021;-45
2021/04/23 00:33:56;;;;;;;6.55;3.33;;;3.70;99.90;;;;;;5015608;28;20497;-44
2021/04/23 00:36:22;;;;;;;5.35;3.05;;;3.70;99.90;;;;;;5014229;28;20030;-43
2021/04/23 00:38:48;;;;;;;7.05;3.47;;;3.70;99.90;;;;;;5015890;28;20022;-43
2021/04/23 00:41:17;;;;;;;12.70;4.20;;;3.60;99.90;;;;;;5015341;28;20026;-44
2021/04/23 00:43:55;;;;;;;11.38;3.40;;;3.60;99.90;;;;;;5015647;28;20208;-43
2021/04/23 00:46:21;;;;;;;11.55;3.80;;;3.60;99.90;;;;;;5015471;28;20377;-43
2021/04/23 00:48:47;;;;;;;12.00;3.90;;;3.50;99.90;;;;;;5015315;28;20034;-43
2021/04/23 00:51:16;;;;;;;14.15;3.53;;;3.40;99.90;;;;;;5021354;28;20036;-43
2021/04/23 00:53:51;;;;;;;7.75;3.25;;;3.40;99.90;;;;;;5035011;28;20030;-44
2021/04/23 00:56:20;;;;;;;10.75;3.70;;;3.40;99.90;;;;;;5035085;28;20408;-43
2021/04/23 00:58:46;;;;;;;8.25;2.72;;;3.40;99.90;;;;;;5035223;28;20484;-43
2021/04/23 01:01:35;;;;;;;9.10;3.25;;;3.40;99.90;;;;;;5034833;28;20212;-43
2021/04/23 01:04:03;;;;;;;9.85;3.42;;;3.30;99.90;;;;;;5035004;28;20109;-43
2021/04/23 01:06:31;;;;;;;6.38;3.25;;;3.30;99.90;;;;;;5033724;28;20037;-44
2021/04/23 01:08:59;;;;;;;13.77;3.92;;;3.30;99.90;;;;;;5034977;28;20369;-43
2021/04/23 01:11:27;;;;;;;15.00;4.22;;;3.20;99.90;;;;;;5034773;28;20025;-45
2021/04/23 01:13:54;;;;;;;7.57;3.20;;;3.20;99.90;;;;;;5029121;28;20034;-43
2021/04/23 01:16:23;;;;;;;9.63;3.95;;;3.40;99.90;;;;;;5014889;28;20527;-43
2021/04/23 01:18:50;;;;;;;8.30;3.75;;;3.50;99.90;;;;;;5014995;28;20045;-43
2021/04/23 01:21:20;;;;;;;7.13;3.50;;;3.60;99.90;;;;;;5013745;28;20212;-43
2021/04/23 01:23:47;;;;;;;8.77;3.42;;;3.70;99.90;;;;;;5014876;28;20026;-45
2021/04/23 01:26:15;;;;;;;14.18;5.72;;;3.90;99.90;;;;;;5014657;28;20386;-43
2021/04/23 01:28:42;;;;;;;16.52;3.80;;;4.00;99.90;;;;;;5013798;28;20038;-46
2021/04/23 01:31:10;;;;;;;13.30;4.15;;;4.10;99.90;;;;;;5014559;28;20053;-43
2021/04/23 01:33:38;;;;;;;9.68;3.25;;;4.20;99.90;;;;;;5014561;28;20038;-45
2021/04/23 01:36:05;;;;;;;7.63;3.53;;;4.30;99.90;;;;;;5013055;28;20036;-43
2021/04/23 01:38:30;;;;;;;8.32;3.78;;;4.40;99.90;;;;;;5014709;28;20029;-43
2021/04/23 01:40:56;;;;;;;11.05;3.83;;;4.50;99.90;;;;;;5014295;28;20366;-44
2021/04/23 01:43:22;;;;;;;12.57;4.07;;;4.60;99.90;;;;;;5014287;28;20121;-44
2021/04/23 01:45:48;;;;;;;9.98;3.53;;;4.70;99.90;;;;;;5014392;28;20359;-44
2021/04/23 01:48:15;;;;;;;12.23;4.47;;;4.70;99.90;;;;;;5014392;28;20113;-44
2021/04/23 01:50:41;;;;;;;9.65;3.67;;;4.80;99.90;;;;;;5015874;28;20744;-44
2021/04/23 01:53:07;;;;;;;14.50;4.00;;;4.90;99.90;;;;;;5033906;28;20041;-45
2021/04/23 01:55:33;;;;;;;9.63;3.58;;;5.00;99.90;;;;;;5033823;28;20487;-44
2021/04/23 01:57:59;;;;;;;9.90;3.80;;;5.00;99.90;;;;;;5033755;28;20053;-45
2021/04/23 02:00:32;;;;;;;14.13;3.83;;;5.00;99.90;;;;;;5033758;28;20067;-45
2021/04/23 02:03:00;;;;;;;7.82;3.97;;;5.10;99.90;;;;;;5033868;28;20017;-44
2021/04/23 02:05:27;;;;;;;13.05;4.32;;;5.10;99.90;;;;;;5032382;28;20108;-43
2021/04/23 02:07:54;;;;;;;11.02;3.40;;;5.20;99.90;;;;;;5033875;28;20021;-43
2021/04/23 02:10:24;;;;;;;11.07;3.80;;;5.20;99.90;;;;;;5033447;28;20463;-46
2021/04/23 02:12:50;;;;;;;10.73;3.80;;;5.20;99.90;;;;;;5033717;28;20480;-46
2021/04/23 02:15:18;;;;;;;12.00;3.92;;;5.20;99.90;;;;;;5016670;28;20026;-44
2021/04/23 02:17:44;;;;;;;6.75;3.05;;;5.30;99.90;;;;;;4996249;28;20060;-43
2021/04/23 02:20:14;;;;;;;7.57;3.65;;;5.30;99.90;;;;;;5012382;28;20469;-45
2021/04/23 02:22:41;;;;;;;7.95;3.85;;;5.40;99.60;;;;;;5014018;28;20422;-43
2021/04/23 02:25:07;;;;;;;8.60;3.80;;;5.40;99.40;;;;;;5013591;28;20063;-47
2021/04/23 02:27:33;;;;;;;14.90;3.70;;;5.40;99.10;;;;;;5008765;28;20133;-43
2021/04/23 02:29:59;;;;;;;11.27;4.30;;;5.50;99.10;;;;;;5013774;28;20524;-44
2021/04/23 02:32:24;;;;;;;11.20;3.83;;;5.50;98.80;;;;;;5013324;28;20046;-44
2021/04/23 02:34:50;;;;;;;16.60;4.13;;;5.60;98.80;;;;;;5012327;28;20393;-44
2021/04/23 02:37:15;;;;;;;11.45;3.75;;;5.60;98.50;;;;;;5013414;28;20037;-45
2021/04/23 02:39:41;;;;;;;13.48;3.92;;;5.60;98.60;;;;;;5013425;28;20029;-45
2021/04/23 02:42:07;;;;;;;9.95;3.97;;;5.60;98.40;;;;;;5013361;28;20067;-44
2021/04/23 02:44:33;;;;;;;10.55;3.15;;;5.70;98.10;;;;;;5013263;28;20030;-44
2021/04/23 02:46:58;;;;;;;8.65;3.33;;;5.70;98.10;;;;;;5013327;28;20034;-45
2021/04/23 02:49:24;;;;;;;13.95;3.50;;;5.70;98.10;;;;;;4994336;28;20412;-44
2021/04/23 02:51:49;;;;;;;12.52;3.75;;;5.70;97.80;;;;;;5025147;28;20025;-43
2021/04/23 02:54:18;;;;;;;6.65;3.10;;;5.70;97.90;;;;;;5032781;28;20288;-44
2021/04/23 02:56:44;;;;;;;11.13;3.10;;;5.70;98.10;;;;;;5032768;28;20052;-43
2021/04/23 02:59:10;;;;;;;12.27;4.95;;;5.80;97.90;;;;;;5032769;28;20026;-45
2021/04/23 03:01:40;;;;;;;15.70;4.40;;;5.80;98.10;;;;;;5015062;28;20484;-43
2021/04/23 03:04:06;;;;;;;11.15;3.72;;;5.80;97.90;;;;;;5032461;28;20026;-45
2021/04/23 03:06:32;;;;;;;7.63;3.65;;;5.80;98.00;;;;;;5031994;28;20026;-45
2021/04/23 03:08:58;;;;;;;10.88;3.85;;;5.80;98.00;;;;;;5032809;28;20488;-44
2021/04/23 03:11:25;;;;;;;12.63;4.93;;;5.80;98.00;;;;;;5032524;28;20063;-44
2021/04/23 03:13:53;;;;;;;13.38;3.70;;;5.80;98.10;;;;;;5027291;28;20036;-43
2021/04/23 03:16:19;;;;;;;7.25;3.92;;;5.80;98.30;;;;;;5012766;28;20018;-43
2021/04/23 03:18:46;;;;;;;11.82;4.68;;;5.80;98.10;;;;;;5013020;28;20068;-44
2021/04/23 03:21:13;;;;;;;12.57;4.90;;;5.80;98.00;;;;;;5011648;28;20374;-43
2021/04/23 03:23:40;;;;;;;14.73;3.88;;;5.80;98.20;;;;;;5012626;28;20057;-43
2021/04/23 03:26:09;;;;;;;15.75;5.25;;;5.80;98.00;;;;;;5012771;28;20043;-44
2021/04/23 03:28:35;;;;;;;13.05;4.65;;;5.80;98.20;;;;;;5012736;28;20488;-43
2021/04/23 03:31:02;;;;;;;8.02;4.38;;;5.80;98.60;;;;;;5012536;28;20044;-44
2021/04/23 03:33:28;;;;;;;11.63;4.63;;;5.90;99.00;;;;;;5012456;28;20104;-43
2021/04/23 03:35:56;;;;;;;9.35;3.90;;;5.90;99.30;;;;;;5011263;28;20040;-44
2021/04/23 03:38:25;;;;;;;16.92;4.50;;;5.80;98.80;;;;;;5012861;28;20014;-43
2021/04/23 03:40:52;;;;;;;13.27;4.30;;;5.90;98.70;;;;;;5012649;28;20034;-43
2021/04/23 03:43:18;;;;;;;10.55;4.45;;;5.90;99.50;;;;;;5012524;28;20030;-44
2021/04/23 03:45:44;;;;;;;15.15;5.35;;;5.90;99.70;;;;;;5012389;28;20369;-43
2021/04/23 03:48:10;;;;;;;9.77;3.90;;;5.80;99.40;;;;;;5012521;28;20041;-43
2021/04/23 03:50:37;;;;;;;10.50;3.80;;;5.90;99.40;;;;;;5013095;28;20026;-45
2021/04/23 03:53:06;;;;;;;8.85;4.88;;;5.90;99.60;;;;;;5034546;28;20037;-43
2021/04/23 03:55:38;;;;;;;14.57;7.15;;;5.90;99.80;;;;;;5036266;28;20033;-44
2021/04/23 03:58:05;;;;;;;10.80;3.83;;;5.90;99.90;;;;;;5036212;28;20053;-43
2021/04/23 04:00:36;;;;;;;13.52;4.82;;;5.90;99.60;;;;;;5036019;28;20021;-44
2021/04/23 04:03:02;;;;;;;17.98;6.13;;;5.90;99.90;;;;;;5036100;28;20047;-46
2021/04/23 04:05:28;;;;;;;11.82;4.47;;;5.90;99.90;;;;;;5034672;28;20037;-45
2021/04/23 04:07:53;;;;;;;15.23;4.63;;;5.90;99.90;;;;;;5018259;28;20034;-43
2021/04/23 04:10:19;;;;;;;15.07;4.35;;;5.90;99.90;;;;;;5036080;28;20440;-43
2021/04/23 04:12:46;;;;;;;14.00;5.28;;;5.90;99.80;;;;;;5035885;28;20469;-43
2021/04/23 04:15:12;;;;;;;11.73;4.88;;;5.90;99.50;;;;;;5019484;28;20088;-45
2021/04/23 04:17:37;;;;;;;11.52;4.47;;;5.80;99.60;;;;;;5015789;28;20034;-43
2021/04/23 04:20:07;;;;;;;9.80;3.97;;;5.90;99.70;;;;;;5010761;28;20066;-44
2021/04/23 04:22:32;;;;;;;11.07;3.67;;;5.90;99.50;;;;;;5016422;28;20417;-46
2021/04/23 04:24:58;;;;;;;11.40;4.80;;;5.90;99.40;;;;;;5035897;28;20034;-43
2021/04/23 04:27:23;;;;;;;10.75;4.80;;;5.90;99.40;;;;;;5035400;28;20068;-43
2021/04/23 04:29:49;;;;;;;11.25;4.63;;;5.90;99.40;;;;;;5035319;28;20048;-46
2021/04/23 04:32:16;;;;;;;15.70;5.30;;;5.90;99.30;;;;;;5035256;28;20029;-44
2021/04/23 04:34:42;;;;;;;13.02;5.10;;;5.90;99.40;;;;;;5034131;28;20030;-43
2021/04/23 04:37:08;;;;;;;7.20;3.85;;;5.90;99.40;;;;;;5035397;28;20029;-45
2021/04/23 04:39:33;;;;;;;11.88;4.63;;;5.90;99.50;;;;;;5035137;28;20060;-44
2021/04/23 04:41:59;;;;;;;13.98;5.70;;;5.90;99.70;;;;;;5035107;28;20040;-45
2021/04/23 04:44:24;;;;;;;13.27;4.80;;;6.00;99.90;;;;;;5035287;28;20034;-45
2021/04/23 04:46:50;;;;;;;15.18;4.40;;;5.90;99.70;;;;;;5035191;28;20091;-43
2021/04/23 04:49:15;;;;;;;12.82;4.75;;;6.00;99.90;;;;;;5034019;28;20060;-45
2021/04/23 04:51:41;;;;;;;13.98;4.35;;;6.00;99.90;;;;;;5024161;28;20037;-45
2021/04/23 04:54:06;;;;;;;13.73;5.60;;;6.10;99.70;;;;;;5015304;28;20068;-46
2021/04/23 04:56:32;;;;;;;11.45;4.95;;;6.10;99.50;;;;;;5015284;28;20085;-43
2021/04/23 04:58:57;;;;;;;11.57;4.57;;;6.10;99.50;;;;;;5015249;28;20379;-45
2021/04/23 05:01:23;;;;;;;11.25;4.38;;;6.10;99.50;;;;;;5014966;28;20030;-45
2021/04/23 05:03:49;;;;;;;9.50;4.35;;;6.20;99.70;;;;;;5015095;28;20041;-45
2021/04/23 05:06:15;;;;;;;11.38;4.55;;;6.20;99.60;;;;;;5013842;28;20026;-44
2021/04/23 05:08:40;;;;;;;12.30;4.22;;;6.20;99.40;;;;;;5012290;28;20405;-45
2021/04/23 05:11:06;;;;;;;12.68;5.00;;;6.20;99.20;;;;;;5014740;28;20044;-44
2021/04/23 05:13:32;;;;;;;9.65;5.10;;;6.30;99.40;;;;;;4997021;28;20081;-44
2021/04/23 05:15:59;;;;;;;9.68;3.53;;;6.30;99.30;;;;;;5011225;28;20034;-44
2021/04/23 05:18:25;;;;;;;10.88;4.72;;;6.30;99.20;;;;;;5014418;28;20057;-48
2021/04/23 05:20:50;;;;;;;11.40;5.70;;;6.30;99.20;;;;;;5013433;28;20052;-46
2021/04/23 05:23:16;;;;;;;14.82;5.28;;;6.30;99.20;;;;;;5014754;28;20049;-48
2021/04/23 05:25:42;;;;;;;13.23;4.75;;;6.40;98.90;;;;;;4996896;28;20033;-44
2021/04/23 05:28:07;;;;;;;15.70;5.10;;;6.50;98.70;;;;;;5014536;28;20030;-44
2021/04/23 05:30:35;;;;;;;11.38;5.22;;;6.50;98.70;;;;;;5014110;28;20026;-44
2021/04/23 05:33:01;;;;;;;18.85;5.40;;;6.60;98.40;;;;;;5014392;28;20062;-45
2021/04/23 05:35:28;;;;;;;12.35;5.30;;;6.60;98.20;;;;;;5013133;28;20033;-44
2021/04/23 05:37:55;;;;;;;11.25;4.35;;;6.70;98.10;;;;;;5014332;28;20026;-49
2021/04/23 05:40:29;;;;;;;15.18;5.93;;;6.80;97.90;;;;;;5014637;28;20423;-43
2021/04/23 05:42:54;;;;;;;18.33;5.60;;;6.80;97.60;;;;;;5014246;28;20033;-43
2021/04/23 05:45:21;;;;;;;17.65;5.25;;;6.90;97.40;;;;;;5014462;28;20413;-46
2021/04/23 05:47:47;;;;;;;12.75;5.30;;;6.90;97.20;;;;;;5014199;28;20038;-45
2021/04/23 05:50:14;;;;;;;11.50;4.38;;;6.90;97.00;;;;;;5013211;28;20555;-44
2021/04/23 05:52:40;;;;;;;15.60;4.35;;;7.00;97.10;;;;;;5032975;28;20048;-47
2021/04/23 05:55:08;;;;;;;11.60;5.32;;;7.10;96.90;;;;;;5034036;28;20053;-45
2021/04/23 05:57:34;;;;;;;9.00;4.75;;;7.10;96.60;;;;;;5033407;28;20034;-44
2021/04/23 06:00:00;;;;;;;13.40;5.30;;;7.10;96.40;;;;;;5016486;28;20029;-44
2021/04/23 06:02:28;;;;;;;10.88;4.50;;;7.20;96.30;;;;;;5013649;28;20038;-44
2021/04/23 06:04:54;;;;;;;12.57;4.40;;;7.20;96.20;;;;;;5013034;28;20026;-44
2021/04/23 06:07:19;;;;;;;12.23;4.82;;;7.20;95.90;;;;;;5013960;28;20381;-44
2021/04/23 06:09:45;;;;;;;9.68;4.70;;;7.30;95.70;;;;;;5013790;28;20033;-45
2021/04/23 06:12:10;;;;;;;12.43;5.45;;;7.40;95.40;;;;;;5013561;28;20109;-47
2021/04/23 06:14:36;;;;;;;16.23;5.85;;;7.40;95.00;;;;;;5013095;28;20378;-45
2021/04/23 06:17:04;;;;;;;17.25;5.22;;;7.50;94.80;;;;;;5013585;28;20057;-44
2021/04/23 06:19:31;;;;;;;11.32;4.97;;;7.60;94.60;;;;;;5012534;28;20484;-44
2021/04/23 06:21:57;;;;;;;20.08;6.55;;;7.60;94.30;;;;;;5013838;28;20466;-47
2021/04/23 06:24:23;;;;;;;12.05;5.20;;;7.70;94.00;;;;;;5013683;28;20041;-44
2021/04/23 06:26:48;;;;;;;11.40;4.30;;;7.80;93.80;;;;;;5013465;28;20030;-44
2021/04/23 06:29:14;;;;;;;13.27;5.00;;;7.90;93.60;;;;;;5013621;28;20390;-43
2021/04/23 06:31:39;;;;;;;13.93;4.32;;;8.00;93.40;;;;;;5013509;28;20528;-48
2021/04/23 06:34:05;;;;;;;12.13;4.70;;;8.20;93.10;;;;;;5012338;28;20037;-45
2021/04/23 06:36:30;;;;;;;11.40;5.03;;;8.30;92.50;;;;;;5013551;28;20072;-44
2021/04/23 06:38:56;;;;;;;10.93;4.68;;;8.50;92.20;;;;;;5013272;28;20026;-45
2021/04/23 06:41:22;;;;;;;18.50;5.10;;;8.50;91.70;;;;;;5013383;28;20026;-44
2021/04/23 06:43:49;;;;;;;11.27;4.25;;;8.70;91.40;;;;;;5013260;28;20763;-44
2021/04/23 06:46:14;;;;;;;9.95;4.75;;;8.80;91.20;;;;;;5013520;28;20029;-45
2021/04/23 06:48:40;;;;;;;15.98;4.75;;;9.00;90.50;;;;;;5012989;28;20457;-44
2021/04/23 06:51:05;;;;;;;12.45;4.63;;;9.20;89.60;;;;;;5018236;28;20032;-44
2021/04/23 06:53:32;;;;;;;11.50;4.20;;;9.40;88.50;;;;;;5014339;28;20101;-44
2021/04/23 06:56:00;;;;;;;8.95;4.13;;;9.60;87.60;;;;;;5012653;28;20026;-45
2021/04/23 06:58:25;;;;;;;9.70;4.78;;;9.70;86.80;;;;;;5012862;28;20053;-44
2021/04/23 07:00:51;;;;;;;14.23;5.25;;;9.90;85.70;;;;;;5012800;28;20057;-46
2021/04/23 07:03:16;;;;;;;14.88;4.43;;;10.10;84.30;;;;;;5012891;28;20025;-47
2021/04/23 07:05:44;;;;;;;9.85;3.83;;;10.20;81.90;;;;;;5011723;28;20033;-46
2021/04/23 07:08:10;;;;;;;10.38;4.03;;;10.30;82.10;;;;;;5012948;28;20026;-46
2021/04/23 07:10:36;;;;;;;8.52;3.53;;;10.40;82.70;;;;;;5012915;28;20359;-47
2021/04/23 07:13:03;;;;;;;12.57;3.80;;;10.40;82.00;;;;;;5012675;28;20018;-47
2021/04/23 07:15:31;;;;;;;13.80;4.13;;;10.60;82.10;;;;;;5012877;28;20026;-45
2021/04/23 07:17:57;;;;;;;10.57;3.60;;;10.70;81.80;;;;;;5012618;28;20026;-49
2021/04/23 07:20:23;;;;;;;10.93;3.72;;;10.70;81.30;;;;;;5011940;28;20029;-46
2021/04/23 07:22:50;;;;;;;10.43;4.53;;;10.80;80.30;;;;;;5012645;28;20037;-46
2021/04/23 07:25:18;;;;;;;11.40;3.67;;;11.50;78.30;;;;;;5012733;28;20100;-45
2021/04/23 07:27:43;;;;;;;10.43;3.03;;;12.60;76.90;;;;;;5011952;28;20026;-50
2021/04/23 07:30:19;;;;;;;8.30;2.85;;;13.00;75.20;;;;;;5012820;28;20524;-46
2021/04/23 07:32:45;;;;;;;7.20;2.63;;;13.10;74.50;;;;;;5012731;28;20030;-46
2021/04/23 07:35:11;;;;;;;7.75;3.30;;;12.70;73.50;;;;;;5011521;28;20034;-50
2021/04/23 07:37:37;;;;;;;9.70;3.20;;;12.50;74.20;;;;;;5012433;28;20481;-46
2021/04/23 07:40:05;;;;;;;9.65;4.03;;;12.40;72.90;;;;;;5012621;28;20032;-47
2021/04/23 07:42:31;;;;;;;11.88;3.72;;;12.40;72.00;;;;;;5012688;28;20528;-45
2021/04/23 07:44:57;;;;;;;8.30;2.80;;;12.20;72.10;;;;;;5009796;28;20037;-44
2021/04/23 07:47:23;;;;;;;14.07;3.53;;;11.90;72.50;;;;;;5009838;28;20041;-45
2021/04/23 07:49:49;;;;;;;11.38;3.38;;;11.70;72.30;;;;;;5010910;28;20105;-44
2021/04/23 07:52:15;;;;;;;8.10;3.70;;;11.40;72.50;;;;;;5012135;28;20045;-46
2021/04/23 07:54:41;;;;;;;12.27;3.08;;;11.20;73.00;;;;;;5012102;28;20555;-45
2021/04/23 07:57:09;;;;;;;8.85;2.75;;;11.00;72.60;;;;;;5012371;28;20425;-45
2021/04/23 07:59:34;;;;;;;10.07;3.03;;;11.00;71.60;;;;;;5012367;28;20100;-46
2021/04/23 08:02:01;;;;;;;9.48;3.15;;;10.90;72.40;;;;;;5012258;28;20545;-45
2021/04/23 08:04:27;;;;;;;7.07;2.47;;;10.90;72.20;;;;;;5011083;28;20400;-51
2021/04/23 08:06:52;;;;;;;8.32;2.60;;;11.10;71.90;;;;;;5011884;28;20076;-47
2021/04/23 08:09:18;;;;;;;7.35;2.58;;;11.40;71.90;;;;;;5012190;28;20045;-45
2021/04/23 08:11:43;;;;;;;8.65;2.88;;;11.90;71.10;;;;;;5012181;28;20041;-49
2021/04/23 08:14:09;;;;;;;3.30;2.05;;;12.00;68.90;;;;;;5011961;28;20073;-47
2021/04/23 08:16:35;;;;;;;9.93;3.42;;;12.10;68.70;;;;;;5012261;28;20025;-45
2021/04/23 08:19:00;;;;;;;6.93;2.60;;;12.40;67.80;;;;;;5011226;28;20018;-51
2021/04/23 08:21:27;;;;;;;12.73;3.53;;;13.50;66.60;;;;;;5011911;28;20539;-48
2021/04/23 08:23:53;;;;;;;5.60;2.33;;;14.40;63.90;;;;;;5011927;28;20026;-46
2021/04/23 08:26:18;;;;;;;10.43;2.47;;;14.60;64.10;;;;;;5012163;28;20068;-45
2021/04/23 08:28:44;;;;;;;6.25;2.30;;;14.50;64.40;;;;;;5011906;28;20026;-45
2021/04/23 08:31:10;;;;;;;6.82;2.30;;;14.20;64.20;;;;;;5012138;28;20033;-45
2021/04/23 08:33:36;;;;;;;9.75;2.38;;;14.80;63.00;;;;;;5011898;28;20573;-47
2021/04/23 08:36:03;;;;;;;8.20;2.72;;;15.00;62.70;;;;;;5010729;28;20197;-49
2021/04/23 08:38:29;;;;;;;8.73;3.05;;;15.30;61.50;;;;;;5013083;28;20493;-46
2021/04/23 08:40:57;;;;;;;12.27;2.50;;;16.20;60.90;;;;;;5015394;28;20359;-48
2021/04/23 08:43:23;;;;;;;5.15;2.38;;;17.20;59.10;;;;;;5015477;28;20055;-49
2021/04/23 08:45:49;;;;;;;6.43;2.30;;;18.30;58.00;;;;;;5015245;28;20524;-49
2021/04/23 08:48:15;;;;;;;8.60;2.85;;;19.70;55.70;;;;;;5015484;28;20070;-50
2021/04/23 08:50:42;;;;;;;5.75;2.25;;;20.60;55.30;;;;;;5016897;28;20025;-48
2021/04/23 08:53:08;;;;;;;5.68;2.58;;;20.60;54.90;;;;;;5034886;28;20083;-47
2021/04/23 08:55:33;;;;;;;7.50;2.97;;;19.20;51.80;;;;;;5035010;28;20022;-48
2021/04/23 08:57:59;;;;;;;6.10;2.53;;;18.60;54.70;;;;;;5034909;28;20045;-57
2021/04/23 09:00:25;;;;;;;5.70;2.63;;;19.40;53.20;;;;;;5035071;28;20034;-58
2021/04/23 09:02:50;;;;;;;4.18;1.95;;;20.70;51.30;;;;;;5017244;28;20542;-55
2021/04/23 09:05:17;;;;;;;10.00;2.50;;;21.50;51.00;;;;;;5033636;28;20045;-57
2021/04/23 09:07:58;;;;;;;9.90;2.90;;;21.10;51.30;;;;;;5034908;28;20083;-57
2021/04/23 09:10:24;;;;;;;5.93;2.47;;;21.30;47.40;;;;;;5034936;28;20051;-58
2021/04/23 09:13:06;;;;;;;9.23;2.10;;;20.30;50.90;;;;;;5034831;28;20076;-58
2021/04/23 09:15:32;;;;;;;5.60;2.08;;;19.10;50.30;;;;;;5015713;28;20033;-57
2021/04/23 09:18:12;;;;;;;14.07;3.28;;;18.50;51.70;;;;;;5014675;28;20022;-56
2021/04/23 09:20:41;;;;;;;8.65;2.05;;;19.00;50.20;;;;;;5012661;28;20156;-57
2021/04/23 09:23:14;;;;;;;4.38;2.53;;;19.90;49.40;;;;;;5014586;28;20091;-57
2021/04/23 09:25:45;;;;;;;7.78;2.40;;;20.20;48.80;;;;;;5014652;28;20511;-57
2021/04/23 09:28:11;;;;;;;4.03;1.90;;;21.30;48.00;;;;;;5014602;28;20028;-57
2021/04/23 09:30:37;;;;;;;7.43;2.10;;;21.00;48.40;;;;;;5014526;28;20030;-58
2021/04/23 09:33:03;;;;;;;9.63;2.90;;;20.60;47.90;;;;;;5014517;28;20125;-57
2021/04/23 09:35:34;;;;;;;9.90;2.50;;;19.80;48.20;;;;;;5013570;28;20033;-47
2021/04/23 09:38:00;;;;;;;7.40;3.10;;;18.80;48.70;;;;;;5014335;28;20037;-45
2021/04/23 09:40:34;;;;;;;5.78;2.35;;;18.10;49.60;;;;;;5014423;28;20021;-45
2021/04/23 09:43:02;;;;;;;9.82;3.03;;;18.00;49.60;;;;;;5014212;28;20054;-43
2021/04/23 09:45:31;;;;;;;6.22;2.50;;;17.80;50.20;;;;;;5014351;28;20393;-48
2021/04/23 09:47:57;;;;;;;9.52;3.33;;;17.70;50.40;;;;;;5014412;28;20026;-43
2021/04/23 09:50:30;;;;;;;8.82;2.58;;;17.70;50.10;;;;;;5012937;28;20503;-45
2021/04/23 09:52:58;;;;;;;4.32;2.28;;;17.10;49.30;;;;;;5033981;28;20021;-44
2021/04/23 09:55:28;;;;;;;7.20;2.47;;;16.70;50.40;;;;;;5033654;28;20042;-44
2021/04/23 09:57:59;;;;;;;6.53;2.17;;;16.40;51.20;;;;;;5033829;28;20037;-45
2021/04/23 10:00:28;;;;;;;8.77;2.63;;;16.30;51.10;;;;;;5034022;28;20488;-44
2021/04/23 10:02:56;;;;;;;7.82;2.30;;;16.80;50.90;;;;;;5033920;28;20021;-44
2021/04/23 10:05:44;;;;;;;4.88;1.60;;;16.60;50.80;;;;;;5032809;28;20029;-43
2021/04/23 10:08:22;;;;;;;17.80;12.10;;;16.50;50.70;;;;;;5033684;28;20029;-43
2021/04/23 10:10:54;;;;;;;8.45;5.00;;;16.50;51.20;;;;;;5033819;28;20044;-44
2021/04/23 10:13:28;;;;;;;7.55;4.38;;;16.40;51.10;;;;;;5032788;28;20060;-43
2021/04/23 10:15:54;;;;;;;11.85;3.40;;;16.40;51.00;;;;;;5013812;28;20485;-43
2021/04/23 10:18:20;;;;;;;9.27;2.85;;;16.40;51.20;;;;;;5013779;28;20080;-43
2021/04/23 10:20:49;;;;;;;6.40;2.42;;;16.50;51.20;;;;;;5012862;28;20030;-45
2021/04/23 10:23:17;;;;;;;7.40;2.40;;;16.40;51.20;;;;;;5013709;28;20470;-47
2021/04/23 10:25:43;;;;;;;7.40;2.35;;;16.30;50.70;;;;;;5013820;28;20032;-43
2021/04/23 10:28:11;;;;;;;7.88;2.53;;;15.90;51.30;;;;;;5013737;28;20170;-44
2021/04/23 10:30:43;;;;;;;5.50;2.42;;;15.70;51.60;;;;;;5014003;28;20037;-43
2021/04/23 10:33:14;;;;;;;9.35;2.83;;;15.60;51.90;;;;;;5013532;28;20473;-44
2021/04/23 10:35:43;;;;;;;7.95;2.20;;;15.40;52.10;;;;;;5012709;28;20504;-48
2021/04/23 10:38:11;;;;;;;13.13;4.07;;;15.30;52.10;;;;;;4995822;28;20065;-46
2021/04/23 10:40:42;;;;;;;7.65;3.72;;;15.20;52.00;;;;;;4995936;28;20030;-48
2021/04/23 10:43:14;;;;;;;6.80;4.28;;;15.10;52.10;;;;;;5012934;28;20028;-46
2021/04/23 10:45:47;;;;;;;9.77;3.83;;;15.00;52.00;;;;;;5012842;28;20029;-45
2021/04/23 10:48:13;;;;;;;8.45;3.60;;;15.10;52.30;;;;;;5013141;28;20026;-46
2021/04/23 10:50:52;;;;;;;6.75;2.80;;;15.10;52.20;;;;;;5014421;28;20032;-47
2021/04/23 10:53:25;;;;;;;8.85;3.08;;;15.00;52.20;;;;;;5020752;28;20077;-45
2021/04/23 10:56:05;;;;;;;6.63;2.40;;;15.00;51.20;;;;;;5013009;28;20068;-52
2021/04/23 10:58:31;;;;;;;6.90;1.98;;;14.90;52.20;;;;;;5013336;28;20038;-45
2021/04/23 11:00:58;;;;;;;6.35;1.75;;;14.80;52.10;;;;;;5012956;28;20060;-45
2021/04/23 11:03:37;;;;;;;5.55;2.03;;;14.70;52.10;;;;;;5013108;28;20022;-45
2021/04/23 11:06:07;;;;;;;4.65;1.65;;;14.70;51.90;;;;;;5012001;28;20493;-47
2021/04/23 11:08:36;;;;;;;6.75;2.17;;;14.90;51.70;;;;;;5012963;28;20137;-46
2021/04/23 11:11:15;;;;;;;13.93;2.28;;;15.10;51.30;;;;;;5012680;28;20022;-46
2021/04/23 11:13:45;;;;;;;8.25;1.88;;;15.20;50.90;;;;;;5009242;28;20104;-46
2021/04/23 11:18:52;;;;;;;3.90;1.88;;;15.30;50.20;;;;;;4993218;28;20023;-48
2021/04/23 11:21:36;;;;;;;6.75;1.80;;;15.50;50.30;;;;;;4992563;28;20033;-45
2021/04/23 11:24:22;;;;;;;7.25;1.83;;;15.60;49.80;;;;;;4993334;28;20387;-46
2021/04/23 11:27:06;;;;;;;3.00;1.38;;;15.60;49.60;;;;;;4998450;28;20040;-46
2021/04/23 11:29:36;;;;;;;6.30;1.95;;;15.70;49.80;;;;;;5012890;28;20018;-49
2021/04/23 11:32:25;;;;;;;21.13;4.32;;;15.90;49.50;;;;;;5012465;28;20497;-47
2021/04/23 11:34:55;;;;;;;5.53;1.67;;;16.00;49.00;;;;;;4989869;28;20056;-49
2021/04/23 11:37:22;;;;;;;8.00;1.80;;;16.10;49.20;;;;;;4992559;28;20057;-49
2021/04/23 11:39:51;;;;;;;5.28;1.77;;;16.10;48.60;;;;;;4998915;28;20034;-48
2021/04/23 11:42:21;;;;;;;5.28;1.77;;;16.00;48.60;;;;;;5012275;28;20034;-49
2021/04/23 11:44:54;;;;;;;5.22;1.42;;;16.10;48.60;;;;;;5012731;28;20049;-45
2021/04/23 11:47:30;;;;;;;12.35;2.42;;;16.10;48.70;;;;;;5012361;28;20489;-48
2021/04/23 11:50:16;;;;;;;5.32;1.92;;;16.10;48.30;;;;;;5011618;28;20034;-45
2021/04/23 11:52:44;;;;;;;6.43;2.33;;;16.00;47.80;;;;;;5012296;28;20057;-46
2021/04/23 11:55:15;;;;;;;8.45;2.25;;;16.00;48.50;;;;;;5012008;28;20503;-50
2021/04/23 11:57:41;;;;;;;5.18;1.67;;;16.00;48.20;;;;;;5012193;28;20053;-47
2021/04/23 12:00:15;;;;;;;13.38;2.15;;;16.00;48.50;;;;;;5012238;28;20026;-50
2021/04/23 12:02:41;;;;;;;2.85;1.63;;;15.90;48.00;;;;;;5012058;28;20030;-46
2021/04/23 12:05:18;;;;;;;4.68;1.30;;;15.90;48.60;;;;;;5011099;28;20040;-48
2021/04/23 12:07:45;;;;;;;8.85;1.95;;;15.90;48.60;;;;;;5012425;28;20551;-48
2021/04/23 12:10:13;;;;;;;3.80;1.88;;;15.80;48.50;;;;;;5011885;28;20054;-48
2021/04/23 12:12:41;;;;;;;5.80;1.83;;;15.80;48.60;;;;;;5012137;28;20022;-47
2021/04/23 12:15:07;;;;;;;6.00;1.60;;;15.90;48.70;;;;;;5015718;28;20052;-51
2021/04/23 12:17:43;;;;;;;5.25;1.60;;;15.90;47.90;;;;;;5016121;28;20018;-47
2021/04/23 12:20:19;;;;;;;7.15;1.73;;;15.80;46.90;;;;;;5015079;28;20420;-50
2021/04/23 12:22:46;;;;;;;5.28;2.03;;;15.70;47.00;;;;;;5016012;28;20096;-47
2021/04/23 12:25:27;;;;;;;4.97;2.00;;;15.80;47.70;;;;;;5015784;28;20061;-49
2021/04/23 12:27:54;;;;;;;5.35;1.65;;;15.70;47.30;;;;;;5015758;28;20478;-49
2021/04/23 12:30:32;;;;;;;4.93;1.42;;;15.50;47.80;;;;;;4997489;28;20366;-50
2021/04/23 12:32:58;;;;;;;9.30;1.98;;;15.30;48.20;;;;;;5005690;28;20129;-48
2021/04/23 12:35:42;;;;;;;3.75;1.15;;;15.20;48.40;;;;;;5012796;28;20030;-52
2021/04/23 12:38:10;;;;;;;4.07;1.30;;;15.20;48.70;;;;;;5036196;22;20073;-48
2021/04/23 12:40:39;;;;;;;7.32;1.90;;;15.30;48.60;;;;;;5055179;28;20094;-48
2021/04/23 12:43:15;;;;;;;5.22;1.58;;;15.50;48.60;;;;;;5052164;28;20025;-50
2021/04/23 12:45:55;;;;;;;6.10;1.40;;;15.40;48.00;;;;;;5053694;28;20021;-50
2021/04/23 12:48:23;;;;;;;5.65;1.50;;;15.30;48.40;;;;;;5054311;28;20380;-49
2021/04/23 12:50:50;;;;;;;6.38;1.80;;;15.10;48.00;;;;;;5052385;28;20017;-47
2021/04/23 12:53:22;;;;;;;3.60;1.48;;;14.90;47.60;;;;;;5053363;28;20031;-48
2021/04/23 12:55:49;;;;;;;3.92;1.38;;;14.80;47.50;;;;;;5053286;28;20040;-46